Time;durP1;ratioP1;P1;durP2;ratioP2;P2;SDS_P1;SDS_P2;PMS_P1;PMS_P2;Temp;Humidity;BMP_temperature;BMP_pressure;BME280_temperature;BME280_humidity;BME280_pressure;Samples;Min_cycle;Max_cycle;Signal;HPM_P1;HPM_P2
2021/10/21 00:01:04;;;;;;;4.55;2.17;;;;;;;;;;5034797;28;20017;-88
2021/10/21 00:03:29;;;;;;;5.55;1.95;;;;;;;;;;5034678;28;20009;-87
2021/10/21 00:05:55;;;;;;;3.22;1.17;;;;;;;;;;5034255;28;20148;-88
2021/10/21 00:08:20;;;;;;;4.25;1.80;;;;;;;;;;5034331;28;20354;-87
2021/10/21 00:10:46;;;;;;;3.80;1.27;;;;;;;;;;5067625;28;20022;-88
2021/10/21 00:13:12;;;;;;;4.65;1.40;;;;;;;;;;5034510;28;20028;-87
2021/10/21 00:15:37;;;;;;;2.47;1.35;;;;;;;;;;5035624;28;20101;-88
2021/10/21 00:18:03;;;;;;;2.80;1.08;;;;;;;;;;5067330;28;20076;-87
2021/10/21 00:20:28;;;;;;;3.15;0.93;;;;;;;;;;5034349;28;20025;-88
2021/10/21 00:22:53;;;;;;;3.42;0.80;;;;;;;;;;5034085;28;20100;-87
2021/10/21 00:25:18;;;;;;;1.33;0.50;;;;;;;;;;5035785;28;20041;-87
2021/10/21 00:27:44;;;;;;;1.33;0.55;;;;;;;;;;5067389;28;20100;-87
2021/10/21 00:30:09;;;;;;;2.17;0.60;;;;;;;;;;5033889;28;20033;-87
2021/10/21 00:32:35;;;;;;;2.22;0.52;;;;;;;;;;5035241;28;20401;-88
2021/10/21 00:35:00;;;;;;;1.73;0.68;;;;;;;;;;5033929;28;20496;-87
2021/10/21 00:37:25;;;;;;;4.55;0.60;;;;;;;;;;5033954;28;20018;-88
2021/10/21 00:39:50;;;;;;;5.93;0.73;;;;;;;;;;5033572;28;20067;-87
2021/10/21 00:42:16;;;;;;;2.92;0.70;;;;;;;;;;5033559;28;20021;-88
2021/10/21 00:44:41;;;;;;;3.58;0.45;;;;;;;;;;5033879;28;20025;-88
2021/10/21 00:47:07;;;;;;;3.70;0.68;;;;;;;;;;5067143;28;20056;-88
2021/10/21 00:49:32;;;;;;;4.18;0.60;;;;;;;;;;5033602;28;20025;-87
2021/10/21 00:51:58;;;;;;;3.72;0.63;;;;;;;;;;5033659;28;20072;-87
2021/10/21 00:54:23;;;;;;;3.47;0.55;;;;;;;;;;5033537;28;20018;-88
2021/10/21 00:56:50;;;;;;;3.17;0.60;;;;;;;;;;5033664;28;20060;-88
2021/10/21 00:59:15;;;;;;;2.67;0.50;;;;;;;;;;5066614;28;20013;-88
2021/10/21 01:01:41;;;;;;;3.17;0.50;;;;;;;;;;5033247;28;20021;-89
2021/10/21 01:04:06;;;;;;;2.08;0.50;;;;;;;;;;5033237;28;20017;-88
2021/10/21 01:06:32;;;;;;;5.40;0.68;;;;;;;;;;5033403;28;20026;-88
2021/10/21 01:08:57;;;;;;;3.22;0.60;;;;;;;;;;5021426;28;20025;-88
2021/10/21 01:11:23;;;;;;;3.10;0.45;;;;;;;;;;5033302;28;20487;-88
2021/10/21 01:13:48;;;;;;;3.20;0.55;;;;;;;;;;5066676;28;20021;-87
2021/10/21 01:16:14;;;;;;;3.95;0.65;;;;;;;;;;5066365;28;20017;-88
2021/10/21 01:18:41;;;;;;;4.18;0.40;;;;;;;;;;5034515;28;20097;-88
2021/10/21 01:21:06;;;;;;;2.50;0.82;;;;;;;;;;5032953;28;20026;-88
2021/10/21 01:23:33;;;;;;;7.50;0.70;;;;;;;;;;5033053;28;20017;-88
2021/10/21 01:25:58;;;;;;;3.58;0.40;;;;;;;;;;5032844;28;20112;-88
2021/10/21 01:28:23;;;;;;;6.40;0.80;;;;;;;;;;5032981;28;20033;-88
2021/10/21 01:30:49;;;;;;;8.32;0.93;;;;;;;;;;5033220;28;20021;-88
2021/10/21 01:33:14;;;;;;;2.35;0.50;;;;;;;;;;5066077;28;20048;-88
2021/10/21 01:35:39;;;;;;;1.30;0.38;;;;;;;;;;5033003;28;20056;-88
2021/10/21 01:38:05;;;;;;;5.40;0.82;;;;;;;;;;5066070;28;20159;-88
2021/10/21 01:40:30;;;;;;;5.88;1.05;;;;;;;;;;5032867;28;20014;-88
2021/10/21 01:42:55;;;;;;;5.55;0.70;;;;;;;;;;5056389;28;20021;-88
2021/10/21 01:45:22;;;;;;;3.58;0.50;;;;;;;;;;5028384;28;20018;-88
2021/10/21 01:47:47;;;;;;;2.35;0.40;;;;;;;;;;5032820;28;20025;-88
2021/10/21 01:50:12;;;;;;;4.55;0.68;;;;;;;;;;5032321;28;20025;-87
2021/10/21 01:52:38;;;;;;;4.82;1.05;;;;;;;;;;5065818;28;20495;-88
2021/10/21 01:55:04;;;;;;;3.13;0.47;;;;;;;;;;5032607;28;20018;-87
2021/10/21 01:57:29;;;;;;;4.93;0.95;;;;;;;;;;5032445;28;20017;-88
2021/10/21 01:59:54;;;;;;;4.97;0.60;;;;;;;;;;5032525;28;20433;-88
2021/10/21 02:02:19;;;;;;;6.60;1.00;;;;;;;;;;5033785;28;20524;-88
2021/10/21 02:04:44;;;;;;;4.50;0.65;;;;;;;;;;5065814;28;20022;-89
2021/10/21 02:07:10;;;;;;;8.75;0.88;;;;;;;;;;5032059;28;20072;-89
2021/10/21 02:09:35;;;;;;;5.28;0.68;;;;;;;;;;5033771;28;20461;-88
2021/10/21 02:12:00;;;;;;;6.07;0.60;;;;;;;;;;5065739;28;20021;-88
2021/10/21 02:14:25;;;;;;;3.67;0.55;;;;;;;;;;5032533;28;20025;-89
2021/10/21 02:16:51;;;;;;;5.47;0.70;;;;;;;;;;5032247;28;20026;-88
2021/10/21 02:19:16;;;;;;;3.67;0.50;;;;;;;;;;5032454;28;20484;-88
2021/10/21 02:21:41;;;;;;;4.07;0.68;;;;;;;;;;5032172;28;20397;-88
2021/10/21 02:24:06;;;;;;;4.78;0.93;;;;;;;;;;5032193;28;20022;-88
2021/10/21 02:26:31;;;;;;;3.60;0.82;;;;;;;;;;5065728;28;20112;-88
2021/10/21 02:28:57;;;;;;;8.80;1.48;;;;;;;;;;5065823;28;20473;-88
2021/10/21 02:31:22;;;;;;;3.42;0.57;;;;;;;;;;5032200;28;20018;-88
2021/10/21 02:33:47;;;;;;;8.80;1.55;;;;;;;;;;5045788;28;20564;-89
2021/10/21 02:36:12;;;;;;;4.53;0.57;;;;;;;;;;5029559;28;20548;-88
2021/10/21 02:38:38;;;;;;;8.80;1.00;;;;;;;;;;5033417;28;20021;-88
2021/10/21 02:41:03;;;;;;;7.00;0.80;;;;;;;;;;5032118;28;20536;-88
2021/10/21 02:43:29;;;;;;;7.28;0.50;;;;;;;;;;5058574;28;20010;-88
2021/10/21 02:45:54;;;;;;;6.82;0.80;;;;;;;;;;5027144;28;20017;-88
2021/10/21 02:48:19;;;;;;;5.75;0.60;;;;;;;;;;5031934;28;20025;-88
2021/10/21 02:50:44;;;;;;;4.60;0.73;;;;;;;;;;5032069;28;20435;-88
2021/10/21 02:53:09;;;;;;;4.35;0.52;;;;;;;;;;5031926;28;20489;-89
2021/10/21 02:55:35;;;;;;;3.17;0.65;;;;;;;;;;5033466;28;20155;-88
2021/10/21 02:58:00;;;;;;;5.75;0.77;;;;;;;;;;5031858;28;20030;-87
2021/10/21 03:00:25;;;;;;;4.15;0.70;;;;;;;;;;5032388;28;20511;-88
2021/10/21 03:02:50;;;;;;;5.85;0.57;;;;;;;;;;5033862;28;20025;-88
2021/10/21 03:05:15;;;;;;;7.43;0.80;;;;;;;;;;5069033;28;20014;-87
2021/10/21 03:07:40;;;;;;;7.40;1.15;;;;;;;;;;5035418;28;20469;-88
2021/10/21 03:10:06;;;;;;;6.93;0.80;;;;;;;;;;5035528;28;20049;-88
2021/10/21 03:12:32;;;;;;;7.03;0.80;;;;;;;;;;5036873;28;20097;-88
2021/10/21 03:14:57;;;;;;;2.88;0.55;;;;;;;;;;5036924;28;20429;-89
2021/10/21 03:17:22;;;;;;;6.70;0.68;;;;;;;;;;5036629;28;20017;-89
2021/10/21 03:19:47;;;;;;;7.32;0.70;;;;;;;;;;5035436;28;20071;-88
2021/10/21 03:22:12;;;;;;;3.30;0.40;;;;;;;;;;5035280;28;20393;-89
2021/10/21 03:24:38;;;;;;;5.13;0.65;;;;;;;;;;5037242;28;20460;-88
2021/10/21 03:27:03;;;;;;;4.70;0.68;;;;;;;;;;5035273;28;20028;-87
2021/10/21 03:29:28;;;;;;;4.25;0.77;;;;;;;;;;5036856;28;20028;-88
2021/10/21 03:31:53;;;;;;;7.47;0.70;;;;;;;;;;5035331;28;20052;-89
2021/10/21 03:34:18;;;;;;;4.13;0.45;;;;;;;;;;5035183;28;20108;-89
2021/10/21 03:36:44;;;;;;;6.65;0.60;;;;;;;;;;5036459;28;20060;-88
2021/10/21 03:39:09;;;;;;;4.50;0.70;;;;;;;;;;5036318;28;20152;-88
2021/10/21 03:41:34;;;;;;;1.48;0.40;;;;;;;;;;5068506;28;20013;-88
2021/10/21 03:43:59;;;;;;;2.45;0.32;;;;;;;;;;5036371;28;20049;-88
2021/10/21 03:46:25;;;;;;;3.08;0.52;;;;;;;;;;5035984;28;20021;-88
2021/10/21 03:48:50;;;;;;;0.90;0.30;;;;;;;;;;5035083;28;20010;-88
2021/10/21 03:51:15;;;;;;;4.45;0.40;;;;;;;;;;5034945;28;20025;-89
2021/10/21 03:53:41;;;;;;;3.25;0.50;;;;;;;;;;5035125;28;20049;-88
2021/10/21 03:56:07;;;;;;;1.02;0.20;;;;;;;;;;5066562;28;20032;-88
2021/10/21 03:58:32;;;;;;;7.03;0.50;;;;;;;;;;5022598;28;20067;-88
2021/10/21 04:00:58;;;;;;;3.80;0.52;;;;;;;;;;5061908;28;20426;-89
2021/10/21 04:03:23;;;;;;;1.55;0.40;;;;;;;;;;5031083;28;20546;-89
2021/10/21 04:05:48;;;;;;;2.55;0.47;;;;;;;;;;5027347;28;20135;-88
2021/10/21 04:08:13;;;;;;;2.30;0.50;;;;;;;;;;5034678;28;20022;-89
2021/10/21 04:10:39;;;;;;;1.35;0.45;;;;;;;;;;5034733;28;20377;-87
2021/10/21 04:13:04;;;;;;;1.02;0.40;;;;;;;;;;5034112;28;20026;-88
2021/10/21 04:15:29;;;;;;;3.95;0.70;;;;;;;;;;5034674;28;20021;-88
2021/10/21 04:17:54;;;;;;;4.20;0.65;;;;;;;;;;5067779;28;20029;-88
2021/10/21 04:20:20;;;;;;;2.60;0.60;;;;;;;;;;5053303;28;20112;-88
2021/10/21 04:22:46;;;;;;;2.63;0.30;;;;;;;;;;5035579;28;20021;-89
2021/10/21 04:25:11;;;;;;;3.42;0.52;;;;;;;;;;5034361;28;20028;-89
2021/10/21 04:27:36;;;;;;;1.63;0.47;;;;;;;;;;5034253;28;20017;-88
2021/10/21 04:30:02;;;;;;;1.83;0.38;;;;;;;;;;5035589;28;20394;-88
2021/10/21 04:32:28;;;;;;;9.77;0.70;;;;;;;;;;5033954;28;20405;-88
2021/10/21 04:34:53;;;;;;;3.58;0.50;;;;;;;;;;5034293;28;20029;-88
2021/10/21 04:37:18;;;;;;;3.10;0.80;;;;;;;;;;5033915;28;20017;-88
2021/10/21 04:39:43;;;;;;;6.22;0.98;;;;;;;;;;5034277;28;20013;-89
2021/10/21 04:42:08;;;;;;;5.82;0.65;;;;;;;;;;5035239;28;20454;-88
2021/10/21 04:44:33;;;;;;;3.70;0.63;;;;;;;;;;5065702;28;20024;-89
2021/10/21 04:47:00;;;;;;;9.30;1.25;;;;;;;;;;5034457;28;20017;-89
2021/10/21 04:49:25;;;;;;;5.97;1.13;;;;;;;;;;5033924;28;20536;-88
2021/10/21 04:51:50;;;;;;;13.23;1.20;;;;;;;;;;5034034;28;20056;-89
2021/10/21 04:54:15;;;;;;;10.48;1.50;;;;;;;;;;5067293;28;20025;-88
2021/10/21 04:56:41;;;;;;;9.98;1.40;;;;;;;;;;5067436;28;20483;-90
2021/10/21 04:59:06;;;;;;;4.07;0.70;;;;;;;;;;5067315;28;20028;-89
2021/10/21 05:01:32;;;;;;;7.45;0.40;;;;;;;;;;5033543;28;20044;-88
2021/10/21 05:03:57;;;;;;;5.40;0.88;;;;;;;;;;5066919;28;20095;-88
2021/10/21 05:06:22;;;;;;;12.98;1.58;;;;;;;;;;5034573;28;20021;-88
2021/10/21 05:08:47;;;;;;;4.03;0.82;;;;;;;;;;5033595;28;20010;-88
2021/10/21 05:11:13;;;;;;;7.50;1.10;;;;;;;;;;5066708;28;20037;-89
2021/10/21 05:13:38;;;;;;;15.07;1.13;;;;;;;;;;5033406;28;20120;-89
2021/10/21 05:16:03;;;;;;;11.63;1.23;;;;;;;;;;5033425;28;20033;-89
2021/10/21 05:18:28;;;;;;;10.38;1.17;;;;;;;;;;5066901;28;20024;-89
2021/10/21 05:20:54;;;;;;;15.45;1.23;;;;;;;;;;5066349;28;20460;-89
2021/10/21 05:23:19;;;;;;;10.82;1.08;;;;;;;;;;5033254;28;20484;-89
2021/10/21 05:25:47;;;;;;;11.85;1.52;;;;;;;;;;5033558;28;20088;-88
2021/10/21 05:28:13;;;;;;;10.68;1.38;;;;;;;;;;5033112;28;20052;-88
2021/10/21 05:30:38;;;;;;;11.93;1.35;;;;;;;;;;5032999;28;20056;-88
2021/10/21 05:33:03;;;;;;;8.85;1.00;;;;;;;;;;5033027;28;20025;-88
2021/10/21 05:35:29;;;;;;;9.45;1.58;;;;;;;;;;5066245;28;20025;-87
2021/10/21 05:37:54;;;;;;;11.57;1.38;;;;;;;;;;5032885;28;20029;-88
2021/10/21 05:40:20;;;;;;;9.57;1.65;;;;;;;;;;5034326;28;20056;-88
2021/10/21 05:42:46;;;;;;;13.73;1.23;;;;;;;;;;5066096;28;20024;-88
2021/10/21 05:45:11;;;;;;;11.00;1.73;;;;;;;;;;5033881;28;20017;-88
2021/10/21 05:47:36;;;;;;;8.13;1.15;;;;;;;;;;5065885;28;20017;-88
2021/10/21 05:50:03;;;;;;;6.72;1.80;;;;;;;;;;5032965;28;20060;-88
2021/10/21 05:52:28;;;;;;;9.85;1.75;;;;;;;;;;5032935;28;20017;-87
2021/10/21 05:54:54;;;;;;;15.15;1.23;;;;;;;;;;5034409;28;20014;-89
2021/10/21 05:57:20;;;;;;;7.57;1.05;;;;;;;;;;5034163;28;20021;-89
2021/10/21 05:59:45;;;;;;;4.63;0.73;;;;;;;;;;5032702;28;20018;-89
2021/10/21 06:02:10;;;;;;;3.70;0.65;;;;;;;;;;5033056;28;20080;-89
2021/10/21 06:04:35;;;;;;;4.03;0.50;;;;;;;;;;5032741;28;20441;-89
2021/10/21 06:07:00;;;;;;;4.43;0.50;;;;;;;;;;5032887;28;20473;-88
2021/10/21 06:09:25;;;;;;;7.95;0.80;;;;;;;;;;5024639;28;20036;-89
2021/10/21 06:11:51;;;;;;;7.50;0.88;;;;;;;;;;5031655;28;20112;-88
2021/10/21 06:14:17;;;;;;;2.38;0.70;;;;;;;;;;5027677;28;20018;-89
2021/10/21 06:16:44;;;;;;;4.82;0.60;;;;;;;;;;5029763;28;20063;-89
2021/10/21 06:19:09;;;;;;;5.82;0.68;;;;;;;;;;5066005;28;20044;-88
2021/10/21 06:21:34;;;;;;;7.07;0.98;;;;;;;;;;5032358;28;20489;-88
2021/10/21 06:23:59;;;;;;;6.43;0.70;;;;;;;;;;5032470;28;20029;-88
2021/10/21 06:26:25;;;;;;;6.20;0.80;;;;;;;;;;5066143;28;20025;-88
2021/10/21 06:28:51;;;;;;;4.25;0.73;;;;;;;;;;5065789;28;20048;-88
2021/10/21 06:31:18;;;;;;;3.85;0.90;;;;;;;;;;5065685;28;20075;-87
2021/10/21 06:33:43;;;;;;;6.90;0.82;;;;;;;;;;5028285;28;20060;-87
2021/10/21 06:36:10;;;;;;;7.97;1.17;;;;;;;;;;5034326;28;20030;-88
2021/10/21 06:38:35;;;;;;;12.90;1.30;;;;;;;;;;5069760;28;20386;-88
2021/10/21 06:41:00;;;;;;;13.45;1.50;;;;;;;;;;5035981;28;20112;-88
2021/10/21 06:43:25;;;;;;;8.15;1.00;;;;;;;;;;5036329;28;20125;-88
2021/10/21 06:45:51;;;;;;;9.88;1.20;;;;;;;;;;5036228;28;20032;-87
2021/10/21 06:48:16;;;;;;;9.35;1.40;;;;;;;;;;5070517;28;20039;-88
2021/10/21 06:50:41;;;;;;;10.25;0.98;;;;;;;;;;5037026;28;20013;-88
2021/10/21 06:53:07;;;;;;;12.13;2.05;;;;;;;;;;5036029;28;20366;-88
2021/10/21 06:55:32;;;;;;;11.00;2.08;;;;;;;;;;5069537;28;20036;-89
2021/10/21 06:57:58;;;;;;;15.48;1.63;;;;;;;;;;5037170;28;20030;-88
2021/10/21 07:00:23;;;;;;;12.20;1.23;;;;;;;;;;5035939;28;20503;-88
2021/10/21 07:02:49;;;;;;;10.75;2.03;;;;;;;;;;5069539;28;20024;-88
2021/10/21 07:05:15;;;;;;;3.85;0.98;;;;;;;;;;5036043;28;20377;-88
2021/10/21 07:07:40;;;;;;;10.52;1.60;;;;;;;;;;5069286;28;20075;-88
2021/10/21 07:10:06;;;;;;;8.80;1.60;;;;;;;;;;5035624;28;20422;-87
2021/10/21 07:12:32;;;;;;;13.50;1.55;;;;;;;;;;5035890;28;20100;-88
2021/10/21 07:14:57;;;;;;;13.85;2.13;;;;;;;;;;5036970;28;20099;-88
2021/10/21 07:17:23;;;;;;;6.40;1.27;;;;;;;;;;5035820;28;20109;-88
2021/10/21 07:19:49;;;;;;;15.18;1.48;;;;;;;;;;5060568;28;20041;-88
2021/10/21 07:22:14;;;;;;;10.05;1.63;;;;;;;;;;5068782;28;20152;-88
2021/10/21 07:24:40;;;;;;;6.95;1.27;;;;;;;;;;5069043;28;20048;-88
2021/10/21 07:27:05;;;;;;;6.43;1.20;;;;;;;;;;5035923;28;20029;-87
2021/10/21 07:29:30;;;;;;;12.32;1.90;;;;;;;;;;5036885;28;20064;-88
2021/10/21 07:31:55;;;;;;;12.52;1.60;;;;;;;;;;5023508;28;20029;-88
2021/10/21 07:34:22;;;;;;;14.23;1.48;;;;;;;;;;5034138;28;20084;-88
2021/10/21 07:36:47;;;;;;;6.47;1.38;;;;;;;;;;5035357;28;20025;-87
2021/10/21 07:39:12;;;;;;;4.95;1.20;;;;;;;;;;5035543;28;20080;-87
2021/10/21 07:41:37;;;;;;;11.68;1.73;;;;;;;;;;5037108;28;20398;-87
2021/10/21 07:44:03;;;;;;;7.68;1.80;;;;;;;;;;5036446;28;20022;-87
2021/10/21 07:46:30;;;;;;;9.55;1.70;;;;;;;;;;5068638;28;20044;-87
2021/10/21 07:48:55;;;;;;;6.65;1.60;;;;;;;;;;5034016;28;20022;-89
2021/10/21 07:51:20;;;;;;;5.25;1.75;;;;;;;;;;5036426;28;20078;-87
2021/10/21 07:53:45;;;;;;;9.15;1.83;;;;;;;;;;5036423;28;20473;-87
2021/10/21 07:56:11;;;;;;;8.45;1.90;;;;;;;;;;5068131;28;20497;-88
2021/10/21 07:58:36;;;;;;;4.63;1.83;;;;;;;;;;5036746;28;20028;-87
2021/10/21 08:01:01;;;;;;;5.25;1.52;;;;;;;;;;5068183;28;20026;-87
2021/10/21 08:03:26;;;;;;;5.20;1.38;;;;;;;;;;5022286;28;20009;-88
2021/10/21 08:05:51;;;;;;;9.07;1.75;;;;;;;;;;5034800;28;20017;-88
2021/10/21 08:08:17;;;;;;;7.40;1.70;;;;;;;;;;5067964;28;20021;-87
2021/10/21 08:10:42;;;;;;;11.40;1.38;;;;;;;;;;5034580;28;20462;-88
2021/10/21 08:13:10;;;;;;;15.02;1.55;;;;;;;;;;5034749;28;20025;-88
2021/10/21 08:15:35;;;;;;;12.90;1.20;;;;;;;;;;5067851;28;20029;-88
2021/10/21 08:18:03;;;;;;;7.85;1.25;;;;;;;;;;5034575;28;20025;-88
2021/10/21 08:20:29;;;;;;;10.65;1.33;;;;;;;;;;5032770;28;20029;-88
2021/10/21 08:22:54;;;;;;;5.80;0.90;;;;;;;;;;5024600;28;20009;-88
2021/10/21 08:25:19;;;;;;;11.02;1.20;;;;;;;;;;5067861;28;20022;-88
2021/10/21 08:27:45;;;;;;;7.10;1.40;;;;;;;;;;5034738;28;20026;-88
2021/10/21 08:30:12;;;;;;;6.72;0.63;;;;;;;;;;5036092;28;20479;-88
2021/10/21 08:32:37;;;;;;;5.25;1.15;;;;;;;;;;5034763;28;20010;-88
2021/10/21 08:35:03;;;;;;;4.13;0.82;;;;;;;;;;5068600;28;20020;-87
2021/10/21 08:37:28;;;;;;;6.70;1.05;;;;;;;;;;5033309;28;20021;-88
2021/10/21 08:39:55;;;;;;;8.93;0.80;;;;;;;;;;5024474;28;20342;-88
2021/10/21 08:42:20;;;;;;;6.45;1.00;;;;;;;;;;5034772;28;20100;-88
2021/10/21 08:44:46;;;;;;;4.95;0.88;;;;;;;;;;5028962;28;20048;-88
2021/10/21 08:47:12;;;;;;;5.82;0.55;;;;;;;;;;5027391;28;20113;-87
2021/10/21 08:49:41;;;;;;;4.28;0.52;;;;;;;;;;5035779;28;20045;-88
2021/10/21 08:52:06;;;;;;;6.63;1.23;;;;;;;;;;5034583;28;20028;-87
2021/10/21 08:54:32;;;;;;;7.43;1.05;;;;;;;;;;5068002;28;20021;-88
2021/10/21 08:56:58;;;;;;;6.05;0.90;;;;;;;;;;5036131;28;20029;-88
2021/10/21 08:59:23;;;;;;;7.88;1.05;;;;;;;;;;5066806;28;20083;-87
2021/10/21 09:02:02;;;;;;;6.97;0.80;;;;;;;;;;5067542;28;20017;-87
2021/10/21 09:04:51;;;;;;;9.00;1.27;;;;;;;;;;5034604;28;20028;-88
2021/10/21 09:10:09;;;;;;;9.88;0.80;;;;;;;;;;5035401;28;20101;-87
2021/10/21 09:12:44;;;;;;;5.72;0.90;;;;;;;;;;5035022;28;20530;-88
2021/10/21 09:15:12;;;;;;;13.10;1.10;;;;;;;;;;5067205;28;20044;-88
2021/10/21 09:17:38;;;;;;;5.68;0.82;;;;;;;;;;5067012;28;20025;-88
2021/10/21 09:20:26;;;;;;;11.27;1.20;;;;;;;;;;5033284;28;21492;-88
2021/10/21 09:22:56;;;;;;;8.70;1.00;;;;;;;;;;5035604;28;20021;-88
2021/10/21 09:25:22;;;;;;;9.07;1.20;;;;;;;;;;5034485;28;20064;-88
2021/10/21 09:27:48;;;;;;;8.15;1.27;;;;;;;;;;5032775;28;20021;-88
2021/10/21 09:30:19;;;;;;;8.50;1.20;;;;;;;;;;5033019;28;20029;-88
2021/10/21 09:32:45;;;;;;;7.38;1.15;;;;;;;;;;5065944;28;20449;-88
2021/10/21 09:35:10;;;;;;;7.80;1.42;;;;;;;;;;5065963;28;20469;-88
2021/10/21 09:37:41;;;;;;;4.95;0.93;;;;;;;;;;5032525;28;20024;-88
2021/10/21 09:40:07;;;;;;;13.40;1.65;;;;;;;;;;5032504;28;20021;-88
2021/10/21 09:42:40;;;;;;;10.18;2.10;;;;;;;;;;5064077;28;20092;-89
2021/10/21 09:45:20;;;;;;;14.88;1.65;;;;;;;;;;5033820;28;20049;-88
2021/10/21 09:47:58;;;;;;;11.75;1.30;;;;;;;;;;5032647;28;20481;-88
2021/10/21 09:50:28;;;;;;;10.80;1.30;;;;;;;;;;5033966;28;20047;-89
2021/10/21 09:53:03;;;;;;;4.75;0.90;;;;;;;;;;5032656;28;20025;-89
2021/10/21 09:55:28;;;;;;;10.90;1.40;;;;;;;;;;5066023;28;20021;-89
2021/10/21 09:57:58;;;;;;;11.48;1.88;;;;;;;;;;5032660;28;20056;-89
2021/10/21 10:00:23;;;;;;;9.40;1.33;;;;;;;;;;5065856;28;20167;-89
2021/10/21 10:02:48;;;;;;;9.55;1.35;;;;;;;;;;5034263;28;20049;-89
2021/10/21 10:05:16;;;;;;;7.15;1.70;;;;;;;;;;5033916;28;20442;-88
2021/10/21 10:07:42;;;;;;;9.07;1.40;;;;;;;;;;5065965;28;20068;-88
2021/10/21 10:10:07;;;;;;;4.88;1.23;;;;;;;;;;5032651;28;20021;-89
2021/10/21 10:12:33;;;;;;;5.47;1.00;;;;;;;;;;5032267;28;20466;-88
2021/10/21 10:14:58;;;;;;;7.82;1.20;;;;;;;;;;5032086;28;20363;-88
2021/10/21 10:17:24;;;;;;;5.00;1.27;;;;;;;;;;5032586;28;20037;-88
2021/10/21 10:19:50;;;;;;;5.50;1.13;;;;;;;;;;5065571;28;20076;-88
2021/10/21 10:22:35;;;;;;;5.45;1.20;;;;;;;;;;5065766;28;20049;-88
2021/10/21 10:25:14;;;;;;;6.25;0.80;;;;;;;;;;5065661;28;20469;-88
2021/10/21 10:27:51;;;;;;;7.38;0.80;;;;;;;;;;5032410;28;20369;-88
2021/10/21 10:30:36;;;;;;;6.70;1.25;;;;;;;;;;5032440;28;20029;-88
2021/10/21 10:33:01;;;;;;;7.43;1.30;;;;;;;;;;5026005;28;20025;-88
2021/10/21 10:35:31;;;;;;;6.95;1.27;;;;;;;;;;5025742;28;20039;-87
2021/10/21 10:37:57;;;;;;;6.72;1.40;;;;;;;;;;5032094;28;20013;-88
2021/10/21 10:40:54;;;;;;;8.65;1.45;;;;;;;;;;5065640;28;20381;-88
2021/10/21 10:43:36;;;;;;;9.90;1.20;;;;;;;;;;5020995;28;20427;-89
2021/10/21 10:46:01;;;;;;;3.85;1.27;;;;;;;;;;5033429;28;20021;-88
2021/10/21 10:48:45;;;;;;;5.03;1.08;;;;;;;;;;5065698;28;20024;-87
2021/10/21 10:51:10;;;;;;;5.82;1.00;;;;;;;;;;5032109;28;20508;-88
2021/10/21 10:53:43;;;;;;;12.98;1.17;;;;;;;;;;5031959;28;20014;-88
2021/10/21 10:56:08;;;;;;;6.80;1.10;;;;;;;;;;5019850;28;20382;-88
2021/10/21 10:58:33;;;;;;;4.93;1.10;;;;;;;;;;5064901;28;20010;-88
2021/10/21 11:00:59;;;;;;;6.95;1.38;;;;;;;;;;5065062;28;20087;-88
2021/10/21 11:03:38;;;;;;;8.30;1.08;;;;;;;;;;5031983;28;20024;-88
2021/10/21 11:06:13;;;;;;;7.88;1.45;;;;;;;;;;5031981;28;20018;-88
2021/10/21 11:08:48;;;;;;;4.22;1.25;;;;;;;;;;5020052;28;20021;-88
2021/10/21 11:11:36;;;;;;;6.57;1.05;;;;;;;;;;5033445;28;20033;-89
2021/10/21 11:14:05;;;;;;;6.82;1.23;;;;;;;;;;5028302;28;20123;-88
2021/10/21 11:16:50;;;;;;;6.82;1.40;;;;;;;;;;5030967;28;20036;-89
2021/10/21 11:19:34;;;;;;;6.75;1.27;;;;;;;;;;5031924;28;20056;-88
2021/10/21 11:22:00;;;;;;;10.10;1.48;;;;;;;;;;5045642;28;20045;-88
2021/10/21 11:24:49;;;;;;;5.38;1.23;;;;;;;;;;5034615;28;20029;-88
2021/10/21 11:27:15;;;;;;;7.22;1.27;;;;;;;;;;5035904;28;20021;-89
2021/10/21 11:29:40;;;;;;;6.40;1.13;;;;;;;;;;5068678;28;20021;-89
2021/10/21 11:32:06;;;;;;;3.53;0.40;;;;;;;;;;5067504;28;20483;-89
2021/10/21 11:34:32;;;;;;;4.82;0.63;;;;;;;;;;5048310;28;20021;-89
2021/10/21 11:36:57;;;;;;;4.47;0.47;;;;;;;;;;5035359;28;20040;-89
2021/10/21 11:39:33;;;;;;;4.45;0.50;;;;;;;;;;5035171;28;20041;-88
2021/10/21 11:42:01;;;;;;;7.63;1.13;;;;;;;;;;5035248;28;20037;-88
2021/10/21 11:44:26;;;;;;;4.72;0.60;;;;;;;;;;5034818;28;20045;-88
2021/10/21 11:46:56;;;;;;;4.15;0.63;;;;;;;;;;5068327;28;20067;-88
2021/10/21 11:49:31;;;;;;;3.25;0.50;;;;;;;;;;5034887;28;20029;-88
2021/10/21 11:52:03;;;;;;;5.32;0.60;;;;;;;;;;5031647;28;20548;-88
2021/10/21 11:54:28;;;;;;;6.72;1.65;;;;;;;;;;5062180;28;20049;-88
2021/10/21 11:56:54;;;;;;;3.92;0.57;;;;;;;;;;5022962;28;20626;-88
2021/10/21 11:59:45;;;;;;;8.10;0.98;;;;;;;;;;5068298;28;20021;-88
2021/10/21 12:02:15;;;;;;;4.30;1.00;;;;;;;;;;5022976;28;20100;-89
2021/10/21 12:04:44;;;;;;;4.18;0.63;;;;;;;;;;5030515;28;20473;-88
2021/10/21 12:07:10;;;;;;;8.30;1.13;;;;;;;;;;5067818;28;20117;-88
2021/10/21 12:09:36;;;;;;;3.83;0.65;;;;;;;;;;5035666;28;20075;-88
2021/10/21 12:12:02;;;;;;;4.22;0.68;;;;;;;;;;5034523;28;20025;-88
2021/10/21 12:14:28;;;;;;;4.35;0.80;;;;;;;;;;5034618;28;20018;-88
2021/10/21 12:16:53;;;;;;;6.65;0.73;;;;;;;;;;5034337;28;20491;-88
2021/10/21 12:19:19;;;;;;;6.53;1.40;;;;;;;;;;5034449;28;20021;-88
2021/10/21 12:21:44;;;;;;;8.90;1.75;;;;;;;;;;5034274;28;20468;-88
2021/10/21 12:24:17;;;;;;;6.85;0.77;;;;;;;;;;5034180;28;20013;-89
2021/10/21 12:26:51;;;;;;;10.02;1.08;;;;;;;;;;5034197;28;20017;-88
2021/10/21 12:29:16;;;;;;;4.75;0.63;;;;;;;;;;5033885;28;20021;-88
2021/10/21 12:31:41;;;;;;;4.13;0.82;;;;;;;;;;5034066;28;20021;-88
2021/10/21 12:34:11;;;;;;;7.13;1.30;;;;;;;;;;5035057;28;20025;-88
2021/10/21 12:36:46;;;;;;;8.70;1.48;;;;;;;;;;5067427;28;20496;-88
2021/10/21 12:39:13;;;;;;;11.07;1.00;;;;;;;;;;5033974;28;20025;-88
2021/10/21 12:41:58;;;;;;;6.57;1.08;;;;;;;;;;5033871;28;20017;-88
2021/10/21 12:44:24;;;;;;;16.92;1.00;;;;;;;;;;5033823;28;20028;-88
2021/10/21 12:46:50;;;;;;;8.45;1.10;;;;;;;;;;5035030;28;20017;-88
2021/10/21 12:49:20;;;;;;;6.93;1.08;;;;;;;;;;5033716;28;20024;-88
2021/10/21 12:51:46;;;;;;;8.52;0.95;;;;;;;;;;5033841;28;20018;-88
2021/10/21 12:54:28;;;;;;;7.25;0.93;;;;;;;;;;5033664;28;20472;-88
2021/10/21 12:57:00;;;;;;;6.40;0.87;;;;;;;;;;5021778;28;20469;-89
2021/10/21 12:59:29;;;;;;;6.75;0.80;;;;;;;;;;5020925;28;20484;-88
2021/10/21 13:02:09;;;;;;;2.20;0.43;;;;;;;;;;5033419;28;20044;-89
2021/10/21 13:04:50;;;;;;;5.53;0.90;;;;;;;;;;5033584;28;20022;-88
2021/10/21 13:07:17;;;;;;;3.33;0.80;;;;;;;;;;5033565;28;20384;-88
2021/10/21 13:09:42;;;;;;;4.72;0.70;;;;;;;;;;5034481;28;20079;-88
2021/10/21 13:12:08;;;;;;;7.43;0.70;;;;;;;;;;5066602;28;20473;-88
2021/10/21 13:14:35;;;;;;;3.20;0.40;;;;;;;;;;5066553;28;20038;-88
2021/10/21 13:17:02;;;;;;;2.38;0.38;;;;;;;;;;5064255;28;20021;-88
2021/10/21 13:19:27;;;;;;;4.25;0.57;;;;;;;;;;5033077;28;20100;-88
2021/10/21 13:21:52;;;;;;;2.33;0.32;;;;;;;;;;5062592;28;20116;-89
2021/10/21 13:24:18;;;;;;;3.20;0.20;;;;;;;;;;5032987;28;20024;-89
2021/10/21 13:26:43;;;;;;;4.18;0.40;;;;;;;;;;5033334;28;20044;-88
2021/10/21 13:29:08;;;;;;;2.70;0.30;;;;;;;;;;5032771;28;20028;-88
2021/10/21 13:31:34;;;;;;;4.88;0.20;;;;;;;;;;5033133;28;20103;-88
2021/10/21 13:33:59;;;;;;;1.85;0.20;;;;;;;;;;5032850;28;20022;-88
2021/10/21 13:36:24;;;;;;;7.43;0.47;;;;;;;;;;5032993;28;20077;-89
2021/10/21 13:38:51;;;;;;;1.65;0.40;;;;;;;;;;5034114;28;20104;-88
2021/10/21 13:41:16;;;;;;;1.85;0.40;;;;;;;;;;5033957;28;20029;-88
2021/10/21 13:43:41;;;;;;;1.15;0.10;;;;;;;;;;5032802;28;20018;-89
2021/10/21 13:46:06;;;;;;;2.58;0.30;;;;;;;;;;5032006;28;20024;-88
2021/10/21 13:48:31;;;;;;;2.45;0.30;;;;;;;;;;5066244;28;20469;-88
2021/10/21 13:50:57;;;;;;;1.58;0.30;;;;;;;;;;5065903;28;20030;-89
2021/10/21 13:53:22;;;;;;;0.93;0.20;;;;;;;;;;5032824;28;20026;-89
2021/10/21 13:55:47;;;;;;;2.95;0.70;;;;;;;;;;5032766;28;20067;-88
2021/10/21 13:58:14;;;;;;;2.47;0.30;;;;;;;;;;5065913;28;20024;-88
2021/10/21 14:00:39;;;;;;;1.08;0.30;;;;;;;;;;5033861;28;20022;-88
2021/10/21 14:03:04;;;;;;;3.40;0.40;;;;;;;;;;5029641;28;20024;-88
2021/10/21 14:05:30;;;;;;;2.30;0.50;;;;;;;;;;5021608;28;20021;-88
2021/10/21 14:07:56;;;;;;;2.00;0.40;;;;;;;;;;5033688;28;20099;-88
2021/10/21 14:10:22;;;;;;;5.70;0.80;;;;;;;;;;5062906;28;20449;-88
2021/10/21 14:12:47;;;;;;;3.30;0.57;;;;;;;;;;5032300;28;20404;-88
2021/10/21 14:15:12;;;;;;;3.00;0.50;;;;;;;;;;5032283;28;20059;-89
2021/10/21 14:17:38;;;;;;;2.30;0.50;;;;;;;;;;5032318;28;20014;-88
2021/10/21 14:20:03;;;;;;;4.00;0.82;;;;;;;;;;5065382;28;20083;-88
2021/10/21 14:22:29;;;;;;;7.15;0.93;;;;;;;;;;5033357;28;20358;-88
2021/10/21 14:24:54;;;;;;;3.42;0.90;;;;;;;;;;5032454;28;20108;-88
2021/10/21 14:27:19;;;;;;;2.85;0.90;;;;;;;;;;5032652;28;20071;-88
2021/10/21 14:29:45;;;;;;;3.55;1.10;;;;;;;;;;5065966;28;20402;-88
2021/10/21 14:32:10;;;;;;;3.88;0.85;;;;;;;;;;5032082;28;20028;-88
2021/10/21 14:34:36;;;;;;;2.53;0.68;;;;;;;;;;5052100;28;20021;-88
2021/10/21 14:37:01;;;;;;;7.13;0.88;;;;;;;;;;5065708;28;20029;-88
2021/10/21 14:39:26;;;;;;;7.43;0.85;;;;;;;;;;5019541;28;20525;-88
2021/10/21 14:41:51;;;;;;;4.35;0.60;;;;;;;;;;5065524;28;20024;-89